createdAt,value
2018-08-22T00:01:47.817Z,1.30
2018-08-22T00:04:15.919Z,1.40
2018-08-22T00:06:44.035Z,1.63
2018-08-22T00:09:12.136Z,1.80
2018-08-22T00:11:40.261Z,1.40
2018-08-22T00:14:08.390Z,1.27
2018-08-22T00:16:36.488Z,2.00
2018-08-22T00:19:04.664Z,1.43
2018-08-22T00:21:32.789Z,1.30
2018-08-22T00:24:00.915Z,1.50
2018-08-22T00:26:29.094Z,1.27
2018-08-22T00:28:57.195Z,1.50
2018-08-22T00:31:25.348Z,1.20
2018-08-22T00:33:53.480Z,1.40
2018-08-22T00:36:21.959Z,1.50
2018-08-22T00:38:50.133Z,1.40
2018-08-22T00:41:18.252Z,1.80
2018-08-22T00:43:46.388Z,1.33
2018-08-22T00:46:14.492Z,1.90
2018-08-22T00:48:42.598Z,1.73
2018-08-22T00:51:10.706Z,1.20
2018-08-22T00:53:38.878Z,1.50
2018-08-22T00:56:19.309Z,1.60
2018-08-22T00:58:47.430Z,2.03
2018-08-22T01:01:15.589Z,1.73
2018-08-22T01:04:03.506Z,1.47
2018-08-22T01:06:31.624Z,1.40
2018-08-22T01:08:59.738Z,1.77
2018-08-22T01:11:27.847Z,1.63
2018-08-22T01:13:55.971Z,1.43
2018-08-22T01:16:24.140Z,1.90
2018-08-22T01:18:52.262Z,1.83
2018-08-22T01:21:20.371Z,1.87
2018-08-22T01:23:48.483Z,2.20
2018-08-22T01:26:16.595Z,1.40
2018-08-22T01:28:44.749Z,1.90
2018-08-22T01:31:12.861Z,1.67
2018-08-22T01:33:41.767Z,1.80
2018-08-22T01:36:09.928Z,1.83
2018-08-22T01:38:38.046Z,1.43
2018-08-22T01:41:06.179Z,1.40
2018-08-22T01:43:34.355Z,2.17
2018-08-22T01:46:02.447Z,1.70
2018-08-22T01:48:30.575Z,1.83
2018-08-22T01:50:58.675Z,2.17
2018-08-22T01:53:26.784Z,2.30
2018-08-22T01:55:54.900Z,1.63
2018-08-22T01:58:23.006Z,1.83
2018-08-22T02:00:51.111Z,1.67
2018-08-22T02:03:19.222Z,1.73
2018-08-22T02:05:47.334Z,1.60
2018-08-22T02:08:15.483Z,1.80
2018-08-22T02:10:43.603Z,1.40
2018-08-22T02:13:11.878Z,1.77
2018-08-22T02:15:40.007Z,1.70
2018-08-22T02:18:08.123Z,1.70
2018-08-22T02:20:36.222Z,2.00
2018-08-22T02:23:04.354Z,1.90
2018-08-22T02:25:32.465Z,1.83
2018-08-22T02:28:00.572Z,1.80
2018-08-22T02:30:28.719Z,2.20
2018-08-22T02:32:56.834Z,1.83
2018-08-22T02:35:24.960Z,1.83
2018-08-22T02:37:53.070Z,1.90
2018-08-22T02:40:21.184Z,1.90
2018-08-22T02:42:49.287Z,1.80
2018-08-22T02:45:17.486Z,1.80
2018-08-22T02:47:45.596Z,1.90
2018-08-22T02:50:13.753Z,1.57
2018-08-22T02:52:41.853Z,1.87
2018-08-22T02:55:09.980Z,1.63
2018-08-22T02:57:38.096Z,2.40
2018-08-22T03:00:06.204Z,2.00
2018-08-22T03:02:34.329Z,1.77
2018-08-22T03:05:02.454Z,2.17
2018-08-22T03:07:30.570Z,2.30
2018-08-22T03:09:58.702Z,2.83
2018-08-22T03:12:26.813Z,2.27
2018-08-22T03:14:54.922Z,1.87
2018-08-22T03:17:23.032Z,2.00
2018-08-22T03:19:51.155Z,2.27
2018-08-22T03:22:19.257Z,1.93
2018-08-22T03:24:47.387Z,2.57
2018-08-22T03:27:15.502Z,2.33
2018-08-22T03:29:43.619Z,1.80
2018-08-22T03:32:11.726Z,2.20
2018-08-22T03:34:39.840Z,1.90
2018-08-22T03:37:07.956Z,2.47
2018-08-22T03:39:36.074Z,2.73
2018-08-22T03:42:04.192Z,2.10
2018-08-22T03:44:32.384Z,1.80
2018-08-22T03:47:00.556Z,2.23
2018-08-22T03:49:28.688Z,1.77
2018-08-22T03:51:56.770Z,1.70
2018-08-22T03:54:24.899Z,2.20
2018-08-22T03:56:53.015Z,2.23
2018-08-22T03:59:21.139Z,2.17
2018-08-22T04:01:49.300Z,1.73
2018-08-22T04:04:17.436Z,1.87
2018-08-22T04:06:45.567Z,1.90
2018-08-22T04:09:13.674Z,2.00
2018-08-22T04:11:41.854Z,2.33
2018-08-22T04:14:09.992Z,2.50
2018-08-22T04:16:38.091Z,2.10
2018-08-22T04:19:06.211Z,2.77
2018-08-22T04:21:34.380Z,2.30
2018-08-22T04:24:02.531Z,2.40
2018-08-22T04:26:30.658Z,2.10
2018-08-22T04:28:58.764Z,1.80
2018-08-22T04:31:26.883Z,2.20
2018-08-22T04:33:55.000Z,2.83
2018-08-22T04:36:23.120Z,2.70
2018-08-22T04:38:51.222Z,2.23
2018-08-22T04:41:19.352Z,2.30
2018-08-22T04:43:47.471Z,2.47
2018-08-22T04:46:15.622Z,2.33
2018-08-22T04:48:43.710Z,2.37
2018-08-22T04:51:11.835Z,2.40
2018-08-22T04:53:39.951Z,2.37
2018-08-22T04:56:08.136Z,2.47
2018-08-22T04:58:36.268Z,2.00
2018-08-22T05:01:04.587Z,2.50
2018-08-22T05:03:32.711Z,2.60
2018-08-22T05:06:00.853Z,2.83
2018-08-22T05:08:28.949Z,2.60
2018-08-22T05:10:57.075Z,2.53
2018-08-22T05:13:25.176Z,2.43
2018-08-22T05:15:53.299Z,3.10
2018-08-22T05:18:21.432Z,2.50
2018-08-22T05:20:49.575Z,2.27
2018-08-22T05:23:17.694Z,2.07
2018-08-22T05:25:45.861Z,2.87
2018-08-22T05:28:14.003Z,2.40
2018-08-22T05:30:42.219Z,2.20
2018-08-22T05:33:10.322Z,2.60
2018-08-22T05:35:38.452Z,3.40
2018-08-22T05:38:06.567Z,2.57
2018-08-22T05:40:34.768Z,2.83
2018-08-22T05:43:02.847Z,3.13
2018-08-22T05:45:30.973Z,2.80
2018-08-22T05:47:59.082Z,3.40
2018-08-22T05:50:27.239Z,3.80
2018-08-22T05:52:55.351Z,2.90
2018-08-22T05:55:23.479Z,3.37
2018-08-22T05:57:51.679Z,3.40
2018-08-22T06:00:19.788Z,4.30
2018-08-22T06:02:47.905Z,3.43
2018-08-22T06:05:16.132Z,3.43
2018-08-22T06:07:44.251Z,3.23
2018-08-22T06:10:12.367Z,3.77
2018-08-22T06:12:40.490Z,2.93
2018-08-22T06:15:08.636Z,3.30
2018-08-22T06:17:36.769Z,2.83
2018-08-22T06:20:05.230Z,3.00
2018-08-22T06:22:33.364Z,3.20
2018-08-22T06:25:01.472Z,3.20
2018-08-22T06:27:29.609Z,2.90
2018-08-22T06:29:57.763Z,2.57
2018-08-22T06:32:26.088Z,3.00
2018-08-22T06:34:54.225Z,2.80
2018-08-22T06:37:22.352Z,2.10
2018-08-22T06:39:50.497Z,2.90
2018-08-22T06:42:18.641Z,2.20
2018-08-22T06:44:46.768Z,2.10
2018-08-22T06:47:15.262Z,2.47
2018-08-22T06:49:43.403Z,2.20
2018-08-22T06:52:11.539Z,2.67
2018-08-22T06:54:39.675Z,2.73
2018-08-22T06:57:07.870Z,2.57
2018-08-22T06:59:35.987Z,2.17
2018-08-22T07:02:04.136Z,1.93
2018-08-22T07:04:32.299Z,2.27
2018-08-22T07:07:00.487Z,2.43
2018-08-22T07:09:28.622Z,2.00
2018-08-22T07:11:56.764Z,2.60
2018-08-22T07:14:24.919Z,2.40
2018-08-22T07:16:53.061Z,2.20
2018-08-22T07:19:21.206Z,2.40
2018-08-22T07:21:49.361Z,2.30
2018-08-22T07:24:17.494Z,2.10
2018-08-22T07:26:45.622Z,2.00
2018-08-22T07:29:13.771Z,2.20
2018-08-22T07:31:41.895Z,2.43
2018-08-22T07:34:10.044Z,2.40
2018-08-22T07:36:38.204Z,2.00
2018-08-22T07:39:09.179Z,2.07
2018-08-22T07:41:37.296Z,2.40
2018-08-22T07:44:05.540Z,1.57
2018-08-22T07:46:33.663Z,2.33
2018-08-22T07:49:01.797Z,1.50
2018-08-22T07:51:29.927Z,2.03
2018-08-22T07:53:58.076Z,1.60
2018-08-22T07:56:26.422Z,1.83
2018-08-22T07:59:07.073Z,2.10
2018-08-22T08:01:35.787Z,1.37
2018-08-22T08:04:03.931Z,1.30
2018-08-22T08:06:32.108Z,1.33
2018-08-22T08:09:00.250Z,2.10
2018-08-22T08:11:28.376Z,1.63
2018-08-22T08:13:56.496Z,1.93
2018-08-22T08:16:24.628Z,1.70
2018-08-22T08:18:52.764Z,1.80
2018-08-22T08:21:20.874Z,1.33
2018-08-22T08:23:49.015Z,1.43
2018-08-22T08:26:17.282Z,1.67
2018-08-22T08:28:45.374Z,1.80
2018-08-22T08:31:13.702Z,1.33
2018-08-22T08:33:41.861Z,1.53
2018-08-22T08:36:10.142Z,2.50
2018-08-22T08:38:38.162Z,1.47
2018-08-22T08:41:06.347Z,1.30
2018-08-22T08:43:34.852Z,1.00
2018-08-22T08:46:03.047Z,1.70
2018-08-22T08:48:31.192Z,1.23
2018-08-22T08:50:59.301Z,1.47
2018-08-22T08:53:27.443Z,1.50
2018-08-22T08:55:55.567Z,1.17
2018-08-22T08:58:23.712Z,1.50
2018-08-22T09:00:51.828Z,1.60
2018-08-22T09:03:19.957Z,1.60
2018-08-22T09:05:48.074Z,1.37
2018-08-22T09:08:16.192Z,1.40
2018-08-22T09:10:44.361Z,1.10
2018-08-22T09:13:12.575Z,1.70
2018-08-22T09:15:41.355Z,1.60
2018-08-22T09:18:09.468Z,2.13
2018-08-22T09:20:37.849Z,1.60
2018-08-22T09:23:06.112Z,1.20
2018-08-22T09:25:34.239Z,1.40
2018-08-22T09:28:02.451Z,1.40
2018-08-22T09:30:30.572Z,1.33
2018-08-22T09:32:58.791Z,1.30
2018-08-22T09:35:27.189Z,1.27
2018-08-22T09:37:55.279Z,1.37
2018-08-22T09:40:23.444Z,1.23
2018-08-22T09:42:51.547Z,1.03
2018-08-22T09:45:19.684Z,1.50
2018-08-22T09:47:47.817Z,1.30
2018-08-22T09:50:15.943Z,1.30
2018-08-22T09:52:44.095Z,1.00
2018-08-22T09:55:12.219Z,0.90
2018-08-22T09:57:40.381Z,1.40
2018-08-22T10:00:12.897Z,1.40
2018-08-22T10:02:40.876Z,1.53
2018-08-22T10:05:09.073Z,1.53
2018-08-22T10:07:37.201Z,1.00
2018-08-22T10:10:05.381Z,1.10
2018-08-22T10:12:33.482Z,1.20
2018-08-22T10:15:01.610Z,1.43
2018-08-22T10:17:29.746Z,1.00
2018-08-22T10:19:57.876Z,1.80
2018-08-22T10:22:26.027Z,1.30
2018-08-22T10:24:54.148Z,1.20
2018-08-22T10:27:22.324Z,1.30
2018-08-22T10:29:50.468Z,1.87
2018-08-22T10:32:18.585Z,1.10
2018-08-22T10:34:46.734Z,1.23
2018-08-22T10:37:14.861Z,1.13
2018-08-22T10:39:42.990Z,1.20
2018-08-22T10:42:11.121Z,1.30
2018-08-22T10:44:39.269Z,1.20
2018-08-22T10:47:07.385Z,0.90
2018-08-22T10:49:35.519Z,1.23
2018-08-22T10:52:05.100Z,1.00
2018-08-22T10:54:33.218Z,1.03
2018-08-22T10:57:01.344Z,1.23
2018-08-22T10:59:29.468Z,1.23
2018-08-22T11:01:57.620Z,1.20
2018-08-22T11:04:25.731Z,1.07
2018-08-22T11:06:53.860Z,1.03
2018-08-22T11:09:21.979Z,1.73
2018-08-22T11:11:50.124Z,1.40
2018-08-22T11:14:18.231Z,1.40
2018-08-22T11:16:46.368Z,1.37
2018-08-22T11:19:14.509Z,1.20
2018-08-22T11:21:54.040Z,1.00
2018-08-22T11:24:33.579Z,1.50
2018-08-22T11:27:13.138Z,1.20
2018-08-22T11:29:52.628Z,1.33
2018-08-22T11:32:32.307Z,1.03
2018-08-22T11:34:59.483Z,1.57
2018-08-22T11:37:27.621Z,1.23
2018-08-22T11:39:55.757Z,0.97
2018-08-22T11:42:23.878Z,1.20
2018-08-22T11:44:52.011Z,1.40
2018-08-22T11:47:20.148Z,1.20
2018-08-22T11:49:48.268Z,1.23
2018-08-22T11:52:16.421Z,1.37
2018-08-22T11:54:44.531Z,1.47
2018-08-22T11:57:12.691Z,1.40
2018-08-22T11:59:40.826Z,1.10
2018-08-22T12:02:08.971Z,1.30
2018-08-22T12:04:37.093Z,1.67
2018-08-22T12:07:05.228Z,1.30
2018-08-22T12:09:33.343Z,1.17
2018-08-22T12:12:01.466Z,1.67
2018-08-22T12:14:29.617Z,1.27
2018-08-22T12:16:57.784Z,1.17
2018-08-22T12:19:25.909Z,1.17
2018-08-22T12:21:54.052Z,1.20
2018-08-22T12:24:22.174Z,1.10
2018-08-22T12:26:50.315Z,1.47
2018-08-22T12:29:18.432Z,0.90
2018-08-22T12:31:46.567Z,1.17
2018-08-22T12:34:14.683Z,1.13
2018-08-22T12:36:42.823Z,1.37
2018-08-22T12:39:10.944Z,1.47
2018-08-22T12:41:39.071Z,1.30
2018-08-22T12:44:07.240Z,1.40
2018-08-22T12:46:35.360Z,1.10
2018-08-22T12:49:03.487Z,1.70
2018-08-22T12:51:31.615Z,1.37
2018-08-22T12:53:59.735Z,1.17
2018-08-22T12:56:27.876Z,1.10
2018-08-22T12:58:56.034Z,1.83
2018-08-22T13:01:24.159Z,1.53
2018-08-22T13:03:52.365Z,1.63
2018-08-22T13:06:20.482Z,2.03
2018-08-22T13:08:48.617Z,2.00
2018-08-22T13:11:16.730Z,1.87
2018-08-22T13:13:44.845Z,1.70
2018-08-22T13:16:12.964Z,1.57
2018-08-22T13:18:41.168Z,1.47
2018-08-22T13:21:09.285Z,1.90
2018-08-22T13:23:37.446Z,1.93
2018-08-22T13:26:05.579Z,2.43
2018-08-22T13:28:33.712Z,2.30
2018-08-22T13:31:01.899Z,1.80
2018-08-22T13:33:30.133Z,1.80
2018-08-22T13:35:58.248Z,2.03
2018-08-22T13:38:26.380Z,1.90
2018-08-22T13:40:54.504Z,1.80
2018-08-22T13:43:22.688Z,2.00
2018-08-22T13:45:50.833Z,1.40
2018-08-22T13:48:18.984Z,1.73
2018-08-22T13:50:47.119Z,2.40
2018-08-22T13:53:15.226Z,2.30
2018-08-22T13:55:43.336Z,2.03
2018-08-22T13:58:11.491Z,1.90
2018-08-22T14:00:39.609Z,2.23
2018-08-22T14:03:07.732Z,2.60
2018-08-22T14:05:35.859Z,1.90
2018-08-22T14:08:03.980Z,1.80
2018-08-22T14:10:32.100Z,2.20
2018-08-22T14:13:00.234Z,1.93
2018-08-22T14:15:28.351Z,2.20
2018-08-22T14:17:56.483Z,2.27
2018-08-22T14:20:24.611Z,2.17
2018-08-22T14:22:52.784Z,2.20
2018-08-22T14:25:20.960Z,2.27
2018-08-22T14:27:49.111Z,1.93
2018-08-22T14:30:17.270Z,2.20
2018-08-22T14:32:45.392Z,2.13
2018-08-22T14:35:13.526Z,2.47
2018-08-22T14:37:41.732Z,2.17
2018-08-22T14:40:09.851Z,2.50
2018-08-22T14:42:37.990Z,2.70
2018-08-22T14:45:06.770Z,2.00
2018-08-22T14:47:34.873Z,2.10
2018-08-22T14:50:03.091Z,2.27
2018-08-22T14:52:31.207Z,1.80
2018-08-22T14:54:59.333Z,2.20
2018-08-22T14:57:27.461Z,2.10
2018-08-22T14:59:55.615Z,2.10
2018-08-22T15:02:23.879Z,1.77
2018-08-22T15:04:52.016Z,1.93
2018-08-22T15:07:20.173Z,2.13
2018-08-22T15:09:48.441Z,2.10
2018-08-22T15:12:16.679Z,1.53
2018-08-22T15:14:44.823Z,2.57
2018-08-22T15:17:12.944Z,2.30
2018-08-22T15:19:41.093Z,2.03
2018-08-22T15:22:09.256Z,2.27
2018-08-22T15:24:37.381Z,2.43
2018-08-22T15:27:05.630Z,2.27
2018-08-22T15:29:33.788Z,2.10
2018-08-22T15:32:01.951Z,2.30
2018-08-22T15:34:41.398Z,2.27
2018-08-22T15:37:09.636Z,2.33
2018-08-22T15:39:37.774Z,3.17
2018-08-22T15:42:05.915Z,2.97
2018-08-22T15:44:34.043Z,2.80
2018-08-22T15:47:02.161Z,2.47
2018-08-22T15:49:30.321Z,3.10
2018-08-22T15:51:58.440Z,2.30
2018-08-22T15:54:26.581Z,2.17
2018-08-22T15:56:54.701Z,2.60
2018-08-22T15:59:22.824Z,2.33
2018-08-22T16:01:50.956Z,2.57
2018-08-22T16:04:19.107Z,2.37
2018-08-22T16:06:50.045Z,2.03
2018-08-22T16:09:23.682Z,2.30
2018-08-22T16:11:51.822Z,2.10
2018-08-22T16:14:19.945Z,2.60
2018-08-22T16:16:48.069Z,2.27
2018-08-22T16:19:16.187Z,2.20
2018-08-22T16:21:44.303Z,2.27
2018-08-22T16:24:12.450Z,2.23
2018-08-22T16:26:40.566Z,2.20
2018-08-22T16:29:08.715Z,2.23
2018-08-22T16:31:45.294Z,2.17
2018-08-22T16:34:13.999Z,2.40
2018-08-22T16:36:42.106Z,2.23
2018-08-22T16:39:10.565Z,2.07
2018-08-22T16:41:39.239Z,2.33
2018-08-22T16:44:07.384Z,2.30
2018-08-22T16:46:35.536Z,2.30
2018-08-22T16:49:03.664Z,2.30
2018-08-22T16:51:31.831Z,2.33
2018-08-22T16:54:05.265Z,1.87
2018-08-22T16:56:34.230Z,2.03
2018-08-22T16:59:09.357Z,2.50
2018-08-22T17:01:42.641Z,2.30
2018-08-22T17:04:10.750Z,2.33
2018-08-22T17:06:38.884Z,1.93
2018-08-22T17:09:09.240Z,2.33
2018-08-22T17:11:37.453Z,2.40
2018-08-22T17:14:05.673Z,2.23
2018-08-22T17:16:33.812Z,2.60
2018-08-22T17:19:01.950Z,2.30
2018-08-22T17:21:30.087Z,1.90
2018-08-22T17:23:58.220Z,2.03
2018-08-22T17:26:26.344Z,2.00
2018-08-22T17:28:56.066Z,2.40
2018-08-22T17:31:25.208Z,2.17
2018-08-22T17:33:55.389Z,2.47
2018-08-22T17:36:23.772Z,2.60
2018-08-22T17:38:53.879Z,2.90
2018-08-22T17:41:23.355Z,2.90
2018-08-22T17:44:01.200Z,3.60
2018-08-22T17:46:32.514Z,2.90
2018-08-22T17:49:00.633Z,2.23
2018-08-22T17:51:28.840Z,2.87
2018-08-22T17:53:56.993Z,2.37
2018-08-22T17:56:26.274Z,2.23
2018-08-22T17:58:55.473Z,2.00
2018-08-22T18:01:23.976Z,2.37
2018-08-22T18:03:54.661Z,2.13
2018-08-22T18:06:23.689Z,2.20
2018-08-22T18:08:51.895Z,2.80
2018-08-22T18:11:20.068Z,2.33
2018-08-22T18:13:48.277Z,2.83
2018-08-22T18:16:16.369Z,2.07
2018-08-22T18:18:44.513Z,3.10
2018-08-22T18:21:12.722Z,2.40
2018-08-22T18:23:44.906Z,2.50
2018-08-22T18:26:13.028Z,2.77
2018-08-22T18:28:41.165Z,3.27
2018-08-22T18:31:09.308Z,2.20
2018-08-22T18:33:49.481Z,3.00
2018-08-22T18:36:17.723Z,2.37
2018-08-22T18:39:00.069Z,2.73
2018-08-22T18:41:28.215Z,3.00
2018-08-22T18:43:56.358Z,2.57
2018-08-22T18:46:26.072Z,3.43
2018-08-22T18:48:54.257Z,2.80
2018-08-22T18:51:22.416Z,2.23
2018-08-22T18:53:50.651Z,2.63
2018-08-22T18:56:20.312Z,2.20
2018-08-22T18:58:48.441Z,2.20
2018-08-22T19:01:16.560Z,2.33
2018-08-22T19:03:44.715Z,2.50
2018-08-22T19:06:12.876Z,2.23
2018-08-22T19:08:41.004Z,2.27
2018-08-22T19:11:09.656Z,2.87
2018-08-22T19:13:37.788Z,2.50
2018-08-22T19:16:07.434Z,3.90
2018-08-22T19:18:35.670Z,2.83
2018-08-22T19:21:05.228Z,2.40
2018-08-22T19:23:33.380Z,2.57
2018-08-22T19:26:02.978Z,2.83
2018-08-22T19:28:32.603Z,2.67
2018-08-22T19:31:00.761Z,2.23
2018-08-22T19:33:28.939Z,2.57
2018-08-22T19:35:57.143Z,2.60
2018-08-22T19:38:31.876Z,2.57
2018-08-22T19:41:14.466Z,2.23
2018-08-22T19:43:42.657Z,2.20
2018-08-22T19:46:10.788Z,2.10
2018-08-22T19:48:38.885Z,2.77
2018-08-22T19:51:07.020Z,2.40
2018-08-22T19:53:35.167Z,2.67
2018-08-22T19:56:03.296Z,2.50
2018-08-22T19:58:34.961Z,2.17
2018-08-22T20:01:03.090Z,2.50
2018-08-22T20:03:33.979Z,3.30
2018-08-22T20:06:02.113Z,2.33
2018-08-22T20:08:34.712Z,3.60
2018-08-22T20:11:02.869Z,2.33
2018-08-22T20:13:42.526Z,2.73
2018-08-22T20:16:10.635Z,2.23
2018-08-22T20:18:38.811Z,2.90
2018-08-22T20:21:27.497Z,2.20
2018-08-22T20:23:55.950Z,2.90
2018-08-22T20:26:31.171Z,3.10
2018-08-22T20:29:00.692Z,3.00
2018-08-22T20:31:28.825Z,3.53
2018-08-22T20:34:09.448Z,2.63
2018-08-22T20:36:37.711Z,2.67
2018-08-22T20:39:08.760Z,2.40
2018-08-22T20:41:37.422Z,3.03
2018-08-22T20:44:09.429Z,2.60
2018-08-22T20:46:37.623Z,3.07
2018-08-22T20:49:05.863Z,3.30
2018-08-22T20:51:34.092Z,3.67
2018-08-22T20:54:07.691Z,3.43
2018-08-22T20:56:36.599Z,3.30
2018-08-22T20:59:04.725Z,3.63
2018-08-22T21:01:32.838Z,3.97
2018-08-22T21:04:00.975Z,2.63
2018-08-22T21:06:29.090Z,3.10
2018-08-22T21:08:57.220Z,2.90
2018-08-22T21:11:25.365Z,3.63
2018-08-22T21:13:53.555Z,2.57
2018-08-22T21:16:21.598Z,2.63
2018-08-22T21:18:49.952Z,2.83
2018-08-22T21:21:22.391Z,3.00
2018-08-22T21:23:50.516Z,3.67
2018-08-22T21:26:34.270Z,2.57
2018-08-22T21:29:02.416Z,3.33
2018-08-22T21:31:30.620Z,2.60
2018-08-22T21:34:01.284Z,2.80
2018-08-22T21:36:29.404Z,3.33
2018-08-22T21:38:57.528Z,3.37
2018-08-22T21:41:25.651Z,2.70
2018-08-22T21:43:53.797Z,3.10
2018-08-22T21:46:21.903Z,2.70
2018-08-22T21:48:50.060Z,2.40
2018-08-22T21:51:19.507Z,3.10
2018-08-22T21:53:47.619Z,3.03
2018-08-22T21:56:16.476Z,2.60
2018-08-22T21:58:44.595Z,3.90
2018-08-22T22:01:12.768Z,2.50
2018-08-22T22:03:40.878Z,2.37
2018-08-22T22:06:09.013Z,2.43
2018-08-22T22:08:43.382Z,2.83
2018-08-22T22:11:11.515Z,3.00
2018-08-22T22:13:39.620Z,2.33
2018-08-22T22:16:07.741Z,3.07
2018-08-22T22:18:35.923Z,2.60
2018-08-22T22:21:15.867Z,2.43
2018-08-22T22:23:48.015Z,2.93
2018-08-22T22:26:17.314Z,3.10
2018-08-22T22:28:45.451Z,2.97
2018-08-22T22:31:14.682Z,3.10
2018-08-22T22:33:44.395Z,3.30
2018-08-22T22:36:12.516Z,2.83
2018-08-22T22:38:40.627Z,3.40
2018-08-22T22:41:08.763Z,3.33
2018-08-22T22:43:37.512Z,3.00
2018-08-22T22:46:06.239Z,2.90
2018-08-22T22:48:38.558Z,3.47
2018-08-22T22:51:07.377Z,3.53
2018-08-22T22:53:35.702Z,2.90
2018-08-22T22:56:04.123Z,3.40
2018-08-22T22:58:32.936Z,2.80
2018-08-22T23:01:01.232Z,3.73
2018-08-22T23:03:29.330Z,3.90
2018-08-22T23:05:57.475Z,5.83
2018-08-22T23:08:25.575Z,3.50
2018-08-22T23:10:53.690Z,4.13
2018-08-22T23:13:23.999Z,3.30
2018-08-22T23:15:52.245Z,5.47
2018-08-22T23:18:20.330Z,3.40
2018-08-22T23:20:48.512Z,3.70
2018-08-22T23:23:29.835Z,3.80
2018-08-22T23:26:05.464Z,4.23
2018-08-22T23:28:33.887Z,3.60
2018-08-22T23:31:01.995Z,4.93
2018-08-22T23:33:30.099Z,4.80
2018-08-22T23:35:58.227Z,4.33
2018-08-22T23:38:29.404Z,4.20
2018-08-22T23:40:57.946Z,5.40
2018-08-22T23:43:26.162Z,4.60
2018-08-22T23:45:55.278Z,4.60
2018-08-22T23:48:28.805Z,4.13
2018-08-22T23:50:59.667Z,4.57
2018-08-22T23:53:29.411Z,5.13
2018-08-22T23:56:10.811Z,4.50
2018-08-22T23:58:39.707Z,4.70
